createdAt,value
2023-04-01T00:00:49.910Z,96855.78
2023-04-01T00:03:18.347Z,96852.09
2023-04-01T00:05:46.732Z,96846.28
2023-04-01T00:08:14.576Z,96841.59
2023-04-01T00:10:42.015Z,96833.88
2023-04-01T00:13:09.620Z,96847.63
2023-04-01T00:15:37.123Z,96849.19
2023-04-01T00:18:04.531Z,96841.19
2023-04-01T00:20:32.097Z,96844.09
2023-04-01T00:22:59.457Z,96848.66
2023-04-01T00:25:26.905Z,96855.78
2023-04-01T00:27:54.303Z,96846.09
2023-04-01T00:30:21.761Z,96842.38
2023-04-01T00:32:52.343Z,96846.81
2023-04-01T00:35:19.789Z,96855.00
2023-04-01T00:37:48.290Z,96848.31
2023-04-01T00:40:41.373Z,96846.19
2023-04-01T00:43:18.801Z,96846.06
2023-04-01T00:45:48.048Z,96851.53
2023-04-01T00:48:19.057Z,96848.28
2023-04-01T00:50:51.591Z,96839.53
2023-04-01T00:53:21.001Z,96853.72
2023-04-01T00:56:01.531Z,96845.91
2023-04-01T00:58:32.462Z,96846.28
2023-04-01T01:01:01.262Z,96845.59
2023-04-01T01:03:29.438Z,96846.88
2023-04-01T01:06:05.961Z,96846.31
2023-04-01T01:09:00.211Z,96849.38
2023-04-01T01:11:46.894Z,96837.59
2023-04-01T01:14:54.971Z,96841.91
2023-04-01T01:17:28.793Z,96846.59
2023-04-01T01:20:25.826Z,96844.31
2023-04-01T01:23:19.034Z,96847.78
2023-04-01T01:26:33.928Z,96837.44
2023-04-01T01:29:26.366Z,96849.13
2023-04-01T01:32:51.718Z,96866.78
2023-04-01T01:35:29.113Z,96867.84
2023-04-01T01:38:08.757Z,96859.03
2023-04-01T01:40:36.638Z,96864.25
2023-04-01T01:43:09.563Z,96864.25
2023-04-01T01:45:42.049Z,96862.22
2023-04-01T01:48:11.674Z,96855.53
2023-04-01T01:50:40.204Z,96861.69
2023-04-01T01:53:11.735Z,96865.81
2023-04-01T01:55:45.450Z,96857.22
2023-04-01T01:58:43.989Z,96851.78
2023-04-01T02:01:26.595Z,96857.69
2023-04-01T02:03:57.081Z,96858.81
2023-04-01T02:06:26.646Z,96862.94
2023-04-01T02:09:08.104Z,96858.53
2023-04-01T02:11:58.443Z,96858.59
2023-04-01T02:14:39.954Z,96860.00
2023-04-01T02:17:11.443Z,96862.25
2023-04-01T02:19:53.134Z,96868.16
2023-04-01T02:22:33.111Z,96863.06
2023-04-01T02:25:08.110Z,96867.69
2023-04-01T02:27:35.848Z,96863.94
2023-04-01T02:30:03.740Z,96869.56
2023-04-01T02:32:34.594Z,96859.53
2023-04-01T02:35:06.726Z,96868.66
2023-04-01T02:37:36.280Z,96872.28
2023-04-01T02:40:09.074Z,96863.09
2023-04-01T02:42:36.448Z,96875.19
2023-04-01T02:45:04.456Z,96854.06
2023-04-01T02:47:31.952Z,96864.63
2023-04-01T02:49:59.704Z,96861.31
2023-04-01T02:52:27.474Z,96861.81
2023-04-01T02:54:55.202Z,96853.25
2023-04-01T02:57:22.745Z,96864.78
2023-04-01T02:59:50.203Z,96877.06
2023-04-01T03:02:18.267Z,96868.28
2023-04-01T03:04:45.853Z,96863.28
2023-04-01T03:07:13.394Z,96874.63
2023-04-01T03:09:40.995Z,96875.97
2023-04-01T03:12:08.557Z,96876.63
2023-04-01T03:14:46.116Z,96878.59
2023-04-01T03:17:13.458Z,96880.22
2023-04-01T03:19:41.014Z,96876.56
2023-04-01T03:22:12.286Z,96881.06
2023-04-01T03:24:39.756Z,96881.16
2023-04-01T03:27:07.163Z,96865.19
2023-04-01T03:29:34.612Z,96880.75
2023-04-01T03:32:02.134Z,96882.97
2023-04-01T03:34:29.488Z,96878.22
2023-04-01T03:36:57.414Z,96887.66
2023-04-01T03:39:24.927Z,96883.59
2023-04-01T03:41:52.526Z,96899.06
2023-04-01T03:44:19.964Z,96878.75
2023-04-01T03:46:50.917Z,96870.75
2023-04-01T03:49:19.056Z,96870.47
2023-04-01T03:51:46.478Z,96885.44
2023-04-01T03:54:14.067Z,96875.47
2023-04-01T03:56:41.827Z,96879.44
2023-04-01T03:59:09.835Z,96889.72
2023-04-01T04:01:37.327Z,96874.09
2023-04-01T04:04:05.708Z,96873.25
2023-04-01T04:06:34.351Z,96868.13
2023-04-01T04:09:01.781Z,96866.03
2023-04-01T04:11:33.766Z,96856.53
2023-04-01T04:14:01.815Z,96863.19
2023-04-01T04:16:29.485Z,96857.38
2023-04-01T04:19:00.062Z,96866.59
2023-04-01T04:21:27.438Z,96854.75
2023-04-01T04:23:55.003Z,96865.69
2023-04-01T04:26:22.552Z,96871.88
2023-04-01T04:28:58.490Z,96851.81
2023-04-01T04:31:27.284Z,96859.28
2023-04-01T04:33:57.201Z,96865.69
2023-04-01T04:36:25.073Z,96861.84
2023-04-01T04:38:53.429Z,96861.19
2023-04-01T04:41:22.876Z,96865.00
2023-04-01T04:43:54.868Z,96870.47
2023-04-01T04:46:24.116Z,96866.50
2023-04-01T04:48:56.789Z,96864.25
2023-04-01T04:51:24.422Z,96867.06
2023-04-01T04:53:52.965Z,96872.84
2023-04-01T04:56:23.779Z,96863.38
2023-04-01T04:59:01.365Z,96860.53
2023-04-01T05:01:41.015Z,96860.03
2023-04-01T05:04:08.416Z,96851.41
2023-04-01T05:06:35.819Z,96857.25
2023-04-01T05:09:03.380Z,96865.78
2023-04-01T05:11:30.856Z,96862.25
2023-04-01T05:13:58.248Z,96861.44
2023-04-01T05:16:25.615Z,96867.22
2023-04-01T05:18:53.032Z,96866.63
2023-04-01T05:21:20.673Z,96859.75
2023-04-01T05:23:50.612Z,96856.44
2023-04-01T05:26:18.122Z,96854.22
2023-04-01T05:28:45.707Z,96859.81
2023-04-01T05:31:13.279Z,96858.25
2023-04-01T05:33:43.067Z,96854.59
2023-04-01T05:36:13.511Z,96858.09
2023-04-01T05:38:41.494Z,96856.69
2023-04-01T05:41:11.748Z,96857.41
2023-04-01T05:43:43.841Z,96856.72
2023-04-01T05:46:37.353Z,96857.59
2023-04-01T05:49:30.979Z,96855.88
2023-04-01T05:51:58.779Z,96861.41
2023-04-01T05:54:26.526Z,96855.06
2023-04-01T05:56:53.955Z,96854.13
2023-04-01T05:59:24.499Z,96850.44
2023-04-01T06:01:52.996Z,96836.63
2023-04-01T06:04:21.374Z,96840.91
2023-04-01T06:06:48.903Z,96850.88
2023-04-01T06:09:20.495Z,96850.06
2023-04-01T06:12:29.927Z,96835.53
2023-04-01T06:15:20.935Z,96858.31
2023-04-01T06:18:03.351Z,96856.72
2023-04-01T06:20:48.758Z,96858.28
2023-04-01T06:23:40.843Z,96850.25
2023-04-01T06:27:06.158Z,96840.53
2023-04-01T06:29:49.058Z,96846.03
2023-04-01T06:32:49.462Z,96838.94
2023-04-01T06:35:35.474Z,96840.25
2023-04-01T06:38:39.408Z,96837.75
2023-04-01T06:41:16.602Z,96834.59
2023-04-01T06:44:01.188Z,96846.28
2023-04-01T06:47:00.652Z,96840.25
2023-04-01T06:50:17.263Z,96839.47
2023-04-01T06:53:23.198Z,96833.31
2023-04-01T06:56:13.987Z,96835.84
2023-04-01T06:58:54.562Z,96844.81
2023-04-01T07:01:32.020Z,96838.13
2023-04-01T07:04:22.462Z,96841.69
2023-04-01T07:07:25.578Z,96840.94
2023-04-01T07:10:00.827Z,96830.78
2023-04-01T07:12:33.674Z,96837.63
2023-04-01T07:15:37.818Z,96834.91
2023-04-01T07:18:19.439Z,96844.41
2023-04-01T07:20:47.838Z,96832.00
2023-04-01T07:23:39.707Z,96833.91
2023-04-01T07:26:24.995Z,96837.78
2023-04-01T07:29:16.388Z,96841.00
2023-04-01T07:31:57.144Z,96845.00
2023-04-01T07:34:27.529Z,96850.84
2023-04-01T07:37:12.031Z,96853.81
2023-04-01T07:40:08.696Z,96853.47
2023-04-01T07:43:17.584Z,96854.41
2023-04-01T07:45:55.089Z,96862.69
2023-04-01T07:48:32.303Z,96856.91
2023-04-01T07:51:12.726Z,96864.13
2023-04-01T07:54:09.436Z,96862.41
2023-04-01T07:56:47.759Z,96860.22
2023-04-01T07:59:28.942Z,96859.53
2023-04-01T08:02:54.080Z,96858.94
2023-04-01T08:05:28.353Z,96857.94
2023-04-01T08:08:19.983Z,96862.00
2023-04-01T08:11:47.926Z,96860.88
2023-04-01T08:15:12.052Z,96849.69
2023-04-01T08:18:12.330Z,96856.88
2023-04-01T08:20:59.160Z,96849.50
2023-04-01T08:23:31.376Z,96852.09
2023-04-01T08:26:34.679Z,96859.16
2023-04-01T08:29:13.009Z,96863.69
2023-04-01T08:31:41.962Z,96867.66
2023-04-01T08:34:20.550Z,96868.59
2023-04-01T08:36:55.328Z,96856.16
2023-04-01T08:39:34.566Z,96857.50
2023-04-01T08:42:24.521Z,96857.47
2023-04-01T08:45:36.053Z,96865.69
2023-04-01T08:48:39.782Z,96860.38
2023-04-01T08:51:48.254Z,96871.91
2023-04-01T08:54:35.240Z,96889.06
2023-04-01T08:57:40.863Z,96872.81
2023-04-01T09:00:59.196Z,96887.16
2023-04-01T09:05:01.183Z,96882.88
2023-04-01T09:07:58.559Z,96884.59
2023-04-01T09:10:50.746Z,96849.53
2023-04-01T09:14:17.146Z,96852.00
2023-04-01T09:17:05.363Z,96864.91
2023-04-01T09:19:51.532Z,96869.16
2023-04-01T09:22:32.462Z,96866.03
2023-04-01T09:25:40.037Z,96865.88
2023-04-01T09:28:20.991Z,96869.75
2023-04-01T09:31:00.307Z,96864.75
2023-04-01T09:33:55.417Z,96850.16
2023-04-01T09:36:59.936Z,96864.69
2023-04-01T09:39:38.573Z,96863.66
2023-04-01T09:42:16.015Z,96851.25
2023-04-01T09:45:00.856Z,96860.53
2023-04-01T09:47:46.858Z,96870.56
2023-04-01T09:50:37.799Z,96867.00
2023-04-01T09:53:25.815Z,96880.97
2023-04-01T09:56:41.719Z,96866.94
2023-04-01T09:59:33.192Z,96866.34
2023-04-01T10:02:38.767Z,96875.19
2023-04-01T10:05:13.031Z,96870.44
2023-04-01T10:08:07.298Z,96885.03
2023-04-01T10:11:05.964Z,96872.72
2023-04-01T10:13:57.939Z,96879.03
2023-04-01T10:16:44.638Z,96877.00
2023-04-01T10:19:44.634Z,96865.44
2023-04-01T10:22:32.211Z,96882.34
2023-04-01T10:25:15.401Z,96882.28
2023-04-01T10:28:13.427Z,96865.19
2023-04-01T10:31:23.739Z,96885.78
2023-04-01T10:34:15.641Z,96877.34
2023-04-01T10:36:54.924Z,96873.81
2023-04-01T10:39:39.733Z,96886.84
2023-04-01T10:42:59.993Z,96880.59
2023-04-01T10:46:29.161Z,96879.91
2023-04-01T10:49:18.860Z,96878.69
2023-04-01T10:52:53.742Z,96878.72
2023-04-01T10:56:29.114Z,96888.88
2023-04-01T10:59:35.642Z,96869.66
2023-04-01T11:02:52.189Z,96893.56
2023-04-01T11:06:14.440Z,96880.84
2023-04-01T11:09:36.223Z,96878.44
2023-04-01T11:12:15.026Z,96883.69
2023-04-01T11:14:55.640Z,96883.09
2023-04-01T11:17:48.555Z,96877.78
2023-04-01T11:20:34.543Z,96895.97
2023-04-01T11:23:29.111Z,96892.19
2023-04-01T11:26:36.246Z,96889.22
2023-04-01T11:29:58.712Z,96898.69
2023-04-01T11:32:56.110Z,96898.91
2023-04-01T11:35:42.339Z,96885.34
2023-04-01T11:38:15.802Z,96881.75
2023-04-01T11:41:38.270Z,96886.03
2023-04-01T11:44:31.901Z,96888.47
2023-04-01T11:47:09.012Z,96887.06
2023-04-01T11:49:58.314Z,96890.41
2023-04-01T11:53:13.422Z,96922.84
2023-04-01T11:55:57.677Z,96920.81
2023-04-01T11:58:49.648Z,96920.91
2023-04-01T12:01:57.151Z,96925.97
2023-04-01T12:04:46.999Z,96923.03
2023-04-01T12:07:23.406Z,96932.94
2023-04-01T12:10:04.707Z,96933.78
2023-04-01T12:12:58.059Z,96941.13
2023-04-01T12:16:04.080Z,96942.50
2023-04-01T12:18:53.831Z,96943.53
2023-04-01T12:22:34.452Z,96967.53
2023-04-01T12:26:06.913Z,96966.25
2023-04-01T12:29:10.705Z,96961.84
2023-04-01T12:32:23.392Z,96957.97
2023-04-01T12:35:03.417Z,96958.41
2023-04-01T12:37:44.998Z,96965.16
2023-04-01T12:45:45.780Z,96965.69
2023-04-01T12:49:28.754Z,96961.66
2023-04-01T12:56:56.796Z,96962.28
2023-04-01T12:59:52.406Z,96967.63
2023-04-01T13:06:21.148Z,96963.72
2023-04-01T13:09:30.436Z,96962.75
2023-04-01T13:12:35.676Z,96965.38
2023-04-01T13:15:41.524Z,96969.88
2023-04-01T13:18:45.958Z,96975.31
2023-04-01T13:21:52.463Z,96965.22
2023-04-01T13:24:46.925Z,96981.13
2023-04-01T13:27:23.174Z,96971.19
2023-04-01T13:30:29.094Z,96987.72
2023-04-01T13:33:36.808Z,96984.16
2023-04-01T13:36:21.414Z,96986.13
2023-04-01T13:39:31.049Z,97005.72
2023-04-01T13:42:23.194Z,97002.50
2023-04-01T13:45:01.077Z,96997.06
2023-04-01T13:47:51.669Z,97007.44
2023-04-01T13:50:56.974Z,96999.00
2023-04-01T13:53:40.259Z,97007.47
2023-04-01T13:57:09.200Z,97001.38
2023-04-01T14:00:23.951Z,97007.25
2023-04-01T14:03:19.083Z,97002.97
2023-04-01T14:06:10.224Z,97014.75
2023-04-01T14:09:00.901Z,96964.78
2023-04-01T14:11:50.771Z,96985.63
2023-04-01T14:14:42.336Z,97017.41
2023-04-01T14:17:18.898Z,97030.09
2023-04-01T14:20:29.018Z,97028.38
2023-04-01T14:23:09.400Z,97030.53
2023-04-01T14:26:03.262Z,97001.66
2023-04-01T14:29:09.018Z,97037.25
2023-04-01T14:31:58.437Z,97024.47
2023-04-01T14:34:28.937Z,97031.22
2023-04-01T14:37:32.325Z,97030.16
2023-04-01T14:40:46.038Z,97046.31
2023-04-01T14:43:50.384Z,97046.41
2023-04-01T14:46:49.769Z,97047.44
2023-04-01T14:49:39.464Z,97044.69
2023-04-01T14:52:35.368Z,97047.28
2023-04-01T14:55:04.392Z,97053.09
2023-04-01T14:57:34.820Z,97056.56
2023-04-01T15:00:17.974Z,97048.34
2023-04-01T15:03:16.190Z,97045.84
2023-04-01T15:05:57.592Z,97053.91
2023-04-01T15:09:02.023Z,97048.81
2023-04-01T15:12:15.440Z,97048.13
2023-04-01T15:15:00.250Z,97056.72
2023-04-01T15:18:13.726Z,97045.84
2023-04-01T15:20:58.942Z,97046.28
2023-04-01T15:24:07.234Z,97045.34
2023-04-01T15:27:04.417Z,97047.50
2023-04-01T15:30:05.966Z,97049.66
2023-04-01T15:33:00.102Z,97047.44
2023-04-01T15:35:27.434Z,97054.00
2023-04-01T15:38:25.766Z,97054.44
2023-04-01T15:41:29.471Z,97048.03
2023-04-01T15:43:56.813Z,97049.38
2023-04-01T15:46:49.898Z,97051.81
2023-04-01T15:49:17.493Z,97051.47
2023-04-01T15:51:59.212Z,97053.31
2023-04-01T15:54:53.849Z,97056.00
2023-04-01T15:57:57.206Z,97055.69
2023-04-01T16:00:34.476Z,97061.97
2023-04-01T16:03:21.701Z,97073.38
2023-04-01T16:06:24.714Z,97073.75
2023-04-01T16:09:25.280Z,97073.34
2023-04-01T16:12:14.104Z,97076.72
2023-04-01T16:14:46.997Z,97075.97
2023-04-01T16:17:49.601Z,97080.44
2023-04-01T16:20:21.796Z,97092.91
2023-04-01T16:23:31.406Z,62700.25
2023-04-01T16:26:20.427Z,62700.25
2023-04-01T16:29:19.227Z,62700.25
2023-04-01T16:32:23.908Z,62700.25
2023-04-01T16:35:38.656Z,62700.25
2023-04-01T16:38:31.981Z,62700.25
2023-04-01T16:41:25.645Z,62700.25
2023-04-01T16:43:58.918Z,62700.25
2023-04-01T16:46:39.763Z,62700.25
2023-04-01T16:49:12.637Z,62700.25
2023-04-01T16:51:51.911Z,62700.25
2023-04-01T16:54:21.955Z,62700.25
2023-04-01T17:00:21.433Z,62700.25
2023-04-01T17:03:05.051Z,62700.25
2023-04-01T17:06:01.376Z,62700.25
2023-04-01T17:08:55.033Z,62700.25
2023-04-01T17:11:58.104Z,62700.25
2023-04-01T17:14:32.116Z,62700.25
2023-04-01T17:17:15.417Z,62700.25
2023-04-01T17:20:14.107Z,62700.25
2023-04-01T17:22:54.174Z,62700.25
2023-04-01T17:25:31.678Z,62700.25
2023-04-01T17:28:19.516Z,62700.25
2023-04-01T17:30:50.733Z,62700.25
2023-04-01T17:34:15.603Z,62700.25
2023-04-01T17:37:30.572Z,62700.25
2023-04-01T17:40:17.179Z,62700.25
2023-04-01T17:42:57.413Z,62700.25
2023-04-01T17:45:56.228Z,62700.25
2023-04-01T17:48:38.220Z,62700.25
2023-04-01T17:51:30.082Z,62700.25
2023-04-01T17:54:38.847Z,62700.25
2023-04-01T17:57:58.599Z,62700.25
2023-04-01T18:00:56.584Z,62700.25
2023-04-01T18:03:58.064Z,62700.25
2023-04-01T18:06:42.749Z,62700.25
2023-04-01T18:09:40.771Z,62700.25
2023-04-01T18:12:38.821Z,62700.25
2023-04-01T18:15:24.684Z,62700.25
2023-04-01T18:18:10.198Z,62700.25
2023-04-01T18:21:01.378Z,62700.25
2023-04-01T18:24:02.363Z,62700.25
2023-04-01T18:26:36.986Z,62700.25
2023-04-01T18:29:35.411Z,62700.25
2023-04-01T18:32:31.598Z,62700.25
2023-04-01T18:35:19.044Z,62700.25
2023-04-01T18:37:46.706Z,62700.25
2023-04-01T18:40:38.198Z,62700.25
2023-04-01T18:43:40.186Z,62700.25
2023-04-01T18:46:42.073Z,62700.25
2023-04-01T18:49:55.523Z,62700.25
2023-04-01T18:52:36.582Z,62700.25
2023-04-01T18:55:03.915Z,62700.25
2023-04-01T18:57:51.479Z,62700.25
2023-04-01T19:00:27.015Z,62700.25
2023-04-01T19:03:09.031Z,62700.25
2023-04-01T19:05:41.122Z,62700.25
2023-04-01T19:08:31.554Z,62700.25
2023-04-01T19:11:42.653Z,62700.25
2023-04-01T19:14:16.236Z,62700.25
2023-04-01T19:16:52.393Z,62700.25
2023-04-01T19:19:47.114Z,62700.25
2023-04-01T19:22:42.205Z,62700.25
2023-04-01T19:25:39.308Z,62700.25
2023-04-01T19:28:37.362Z,62700.25
2023-04-01T19:31:22.261Z,62700.25
2023-04-01T19:34:03.825Z,62700.25
2023-04-01T19:36:50.076Z,62700.25
2023-04-01T19:39:17.359Z,62700.25
2023-04-01T19:42:00.843Z,62700.25
2023-04-01T19:44:54.554Z,62700.25
2023-04-01T19:47:25.690Z,62700.25
2023-04-01T19:50:38.010Z,62700.25
2023-04-01T19:54:10.442Z,62700.25
2023-04-01T19:57:11.668Z,62700.25
2023-04-01T19:59:39.970Z,62700.25
2023-04-01T20:02:09.941Z,62700.25
2023-04-01T20:04:49.283Z,62700.25
2023-04-01T20:07:34.343Z,62700.25
2023-04-01T20:10:15.648Z,62700.25
2023-04-01T20:13:09.914Z,62700.25
2023-04-01T20:15:41.241Z,62700.25
2023-04-01T20:18:59.570Z,62700.25
2023-04-01T20:21:47.291Z,62700.25
2023-04-01T20:24:43.235Z,62700.25
2023-04-01T20:27:14.454Z,62700.25
2023-04-01T20:30:27.536Z,62700.25
2023-04-01T20:33:13.479Z,62700.25
2023-04-01T20:35:46.238Z,62700.25
2023-04-01T20:38:31.857Z,62700.25
2023-04-01T20:41:17.346Z,62700.25
2023-04-01T20:44:13.115Z,62700.25
2023-04-01T20:47:16.026Z,62700.25
2023-04-01T20:50:02.911Z,62700.25
2023-04-01T20:52:56.319Z,62700.25
2023-04-01T20:55:37.663Z,62700.25
2023-04-01T20:58:21.367Z,62700.25
2023-04-01T21:01:06.223Z,62700.25
2023-04-01T21:04:03.475Z,62700.25
2023-04-01T21:07:18.079Z,62700.25
2023-04-01T21:10:13.381Z,62700.25
2023-04-01T21:12:43.429Z,62700.25
2023-04-01T21:15:42.598Z,62700.25
2023-04-01T21:18:56.226Z,62700.25
2023-04-01T21:21:29.595Z,62700.25
2023-04-01T21:24:12.539Z,62700.25
2023-04-01T21:26:54.299Z,62700.25
2023-04-01T21:29:52.887Z,62700.25
2023-04-01T21:32:36.810Z,62700.25
2023-04-01T21:35:41.152Z,62700.25
2023-04-01T21:38:27.548Z,62700.25
2023-04-01T21:40:54.913Z,62700.25
2023-04-01T21:44:02.351Z,62700.25
2023-04-01T21:46:52.737Z,62700.25
2023-04-01T21:49:41.726Z,62700.25
2023-04-01T21:53:02.580Z,62700.25
2023-04-01T21:56:06.018Z,62700.25
2023-04-01T21:59:04.093Z,62700.25
2023-04-01T22:02:21.021Z,62700.25
2023-04-01T22:05:03.554Z,62700.25
2023-04-01T22:07:41.678Z,62700.25
2023-04-01T22:10:46.946Z,62700.25
2023-04-01T22:13:26.049Z,62700.25
2023-04-01T22:16:23.019Z,62700.25
2023-04-01T22:19:16.592Z,62700.25
2023-04-01T22:22:02.085Z,62700.25
2023-04-01T22:24:50.679Z,62700.25
2023-04-01T22:27:56.897Z,62700.25
2023-04-01T22:30:25.171Z,62700.25
2023-04-01T22:33:10.433Z,62700.25
2023-04-01T22:36:02.079Z,62700.25
2023-04-01T22:39:01.327Z,62700.25
2023-04-01T22:42:23.595Z,62700.25
2023-04-01T22:45:13.942Z,62700.25
2023-04-01T22:48:02.505Z,62700.25
2023-04-01T22:51:24.910Z,62700.25
2023-04-01T22:54:03.361Z,62700.25
2023-04-01T22:56:38.493Z,62700.25
2023-04-01T22:59:28.924Z,62700.25
2023-04-01T23:02:16.573Z,62700.25
2023-04-01T23:04:48.305Z,62700.25
2023-04-01T23:07:50.236Z,62700.25
2023-04-01T23:10:28.550Z,62700.25
2023-04-01T23:13:02.596Z,62700.25
2023-04-01T23:15:30.927Z,62700.25
2023-04-01T23:18:26.441Z,62700.25
2023-04-01T23:21:37.007Z,62700.25
2023-04-01T23:24:27.648Z,62700.25
2023-04-01T23:27:02.655Z,62700.25
2023-04-01T23:29:30.312Z,62700.25
2023-04-01T23:32:03.278Z,62700.25
2023-04-01T23:34:33.399Z,62700.25
2023-04-01T23:37:12.837Z,62700.25
2023-04-01T23:39:46.789Z,62700.25
2023-04-01T23:42:30.576Z,62700.25
2023-04-01T23:45:06.567Z,62700.25
2023-04-01T23:47:38.975Z,62700.25
2023-04-01T23:50:14.151Z,62700.25
2023-04-01T23:52:47.143Z,62700.25
2023-04-01T23:55:27.083Z,62700.25
2023-04-01T23:58:23.796Z,62700.25
